^^
Station Historical Data
Daily Summary for December 03, 2019 Units:  Metric    English   Both
« Previous Day
Next Day »
Daily Weekly Monthly Yearly Custom
  High: Low: Average:
Temperature: 3.7 °C -3.4 °C 0.1 °C
Dew Point: -0.3 °C -5.2 °C -2.6 °C
Humidity: 90% 73% 82%
Wind Speed: 38.6km/h 0km/h 13.2km/h
Wind Gust: 45.1km/h - -
Wind- - West
Pressure: 1013.4 hPa 1011.1 hPa -
Precipitation: 6.35 mm    
Historical Graphs
 
 
Tabular Data for December 03, 2019
Time Temperature Dew Point Pressure Wind Wind Speed Wind Gust Humidity Rainfall Rate (Hourly) solar Conditions
00:00 0.3 °C -1.8 °C 1012.8 hPa WSW 12.9 km/h 16.1 km/h 86% 0 mm 0.00 W/m2
00:05 0.2 °C -1.8 °C 1012.8 hPa WSW 11.3 km/h 14.5 km/h 86% 0 mm 0.00 W/m2
00:10 0 °C -2.1 °C 1012.8 hPa WSW 14.5 km/h 14.5 km/h 86% 0 mm 0.00 W/m2
00:15 -0.3 °C -2.4 °C 1012.8 hPa WSW 12.9 km/h 14.5 km/h 86% 0 mm 0.00 W/m2
00:20 -0.6 °C -2.6 °C 1012.8 hPa WSW 12.9 km/h 17.7 km/h 86% 0 mm 0.00 W/m2
00:25 -0.7 °C -2.7 °C 1012.8 hPa WSW 14.5 km/h 17.7 km/h 86% 0 mm 0.00 W/m2
00:30 -0.8 °C -2.7 °C 1012.8 hPa WSW 12.9 km/h 17.7 km/h 87% 0 mm 0.00 W/m2
00:35 -0.6 °C -2.4 °C 1012.4 hPa WSW 17.7 km/h 17.7 km/h 87% 0 mm 0.00 W/m2
00:40 -0.3 °C -2.3 °C 1012.4 hPa WSW 12.9 km/h 19.3 km/h 86% 0 mm 0.00 W/m2
00:45 -0.5 °C -2.6 °C 1012.4 hPa WSW 14.5 km/h 19.3 km/h 86% 0 mm 0.00 W/m2
00:50 -0.3 °C -2.3 °C 1012.4 hPa WSW 19.3 km/h 19.3 km/h 86% 0 mm 0.00 W/m2
00:55 0.3 °C -1.9 °C 1012.4 hPa WSW 19.3 km/h 20.9 km/h 85% 0 mm 0.00 W/m2
01:00 0.3 °C -1.9 °C 1012.1 hPa West 16.1 km/h 20.9 km/h 85% 0 mm 0.00 W/m2
01:05 0.3 °C -1.9 °C 1012.1 hPa West 14.5 km/h 20.9 km/h 85% 0 mm 0.00 W/m2
01:10 0.6 °C -1.8 °C 1012.1 hPa WSW 12.9 km/h 22.5 km/h 84% 0 mm 0.00 W/m2
01:15 0.7 °C -1.7 °C 1012.1 hPa WSW 17.7 km/h 22.5 km/h 84% 0 mm 0.00 W/m2
01:20 0.7 °C -1.7 °C 1012.1 hPa WSW 14.5 km/h 22.5 km/h 84% 0 mm 0.00 W/m2
01:25 0.4 °C -1.9 °C 1012.1 hPa WSW 16.1 km/h 22.5 km/h 84% 0 mm 0.00 W/m2
01:30 0.3 °C -2.1 °C 1012.1 hPa West 14.5 km/h 22.5 km/h 84% 0 mm 0.00 W/m2
01:35 0.2 °C -2.2 °C 1012.1 hPa West 14.5 km/h 22.5 km/h 84% 0 mm 0.00 W/m2
01:40 -0.1 °C -2.3 °C 1012.1 hPa West 11.3 km/h 17.7 km/h 85% 0 mm 0.00 W/m2
01:45 -0.4 °C -2.7 °C 1012.1 hPa WNW 11.3 km/h 16.1 km/h 85% 0 mm 0.00 W/m2
01:50 -0.6 °C -2.8 °C 1012.1 hPa West 12.9 km/h 16.1 km/h 85% 0 mm 0.00 W/m2
01:55 -0.7 °C -2.8 °C 1012.1 hPa WNW 9.7 km/h 16.1 km/h 86% 0 mm 0.00 W/m2
02:00 -0.8 °C -2.8 °C 1012.1 hPa West 14.5 km/h 16.1 km/h 86% 0 mm 0.00 W/m2
02:05 -0.9 °C -2.9 °C 1011.7 hPa West 6.4 km/h 14.5 km/h 86% 0 mm 0.00 W/m2
02:10 -1.1 °C -2.9 °C 1011.7 hPa Calm   12.9 km/h 87% 0 mm 0.00 W/m2
02:15 -1.2 °C -3.1 °C 1012.1 hPa West 1.6 km/h 11.3 km/h 87% 0 mm 0.00 W/m2
02:20 -1.3 °C -3.1 °C 1012.1 hPa West 4.8 km/h 11.3 km/h 88% 0 mm 0.00 W/m2
02:25 -1.5 °C -3.2 °C 1012.1 hPa West 3.2 km/h 4.8 km/h 88% 0 mm 0.00 W/m2
02:30 -1.6 °C -3.1 °C 1012.1 hPa WSW 4.8 km/h 4.8 km/h 89% 0 mm 0.00 W/m2
02:35 -1.5 °C -3.1 °C 1012.1 hPa SW 6.4 km/h 8 km/h 89% 0 mm 0.00 W/m2
02:40 -1.4 °C -3.1 °C 1012.1 hPa WSW 6.4 km/h 12.9 km/h 88% 0 mm 0.00 W/m2
02:45 -1.4 °C -3.2 °C 1012.1 hPa WSW 4.8 km/h 12.9 km/h 88% 0 mm 0.00 W/m2
02:50 -1.5 °C -3.2 °C 1012.1 hPa WSW 3.2 km/h 12.9 km/h 88% 0 mm 0.00 W/m2
02:55 -1.6 °C -3.3 °C 1012.1 hPa West 4.8 km/h 12.9 km/h 88% 0 mm 0.00 W/m2
03:00 -1.7 °C -3.4 °C 1012.1 hPa WSW 4.8 km/h 9.7 km/h 88% 0 mm 0.00 W/m2
03:05 -1.7 °C -3.4 °C 1012.1 hPa WNW 11.3 km/h 14.5 km/h 88% 0 mm 0.00 W/m2
03:10 -1.5 °C -3.4 °C 1012.1 hPa WNW 6.4 km/h 14.5 km/h 87% 0 mm 0.00 W/m2
03:15 -1.6 °C -3.4 °C 1012.1 hPa West 1.6 km/h 14.5 km/h 87% 0 mm 0.00 W/m2
03:20 -1.6 °C -3.4 °C 1012.1 hPa WSW 8 km/h 14.5 km/h 87% 0 mm 0.00 W/m2
03:25 -1.5 °C -3.4 °C 1012.1 hPa West 4.8 km/h 11.3 km/h 87% 0 mm 0.00 W/m2
03:30 -1.6 °C -3.4 °C 1011.7 hPa Calm   11.3 km/h 87% 0 mm 0.00 W/m2
03:35 -1.6 °C -3.3 °C 1012.1 hPa WSW 1.6 km/h 11.3 km/h 88% 0 mm 0.00 W/m2
03:40 -1.7 °C -3.6 °C 1012.1 hPa Calm   11.3 km/h 87% 0 mm 0.00 W/m2
03:45 -1.7 °C -3.4 °C 1012.1 hPa WSW 3.2 km/h 6.4 km/h 88% 0 mm 0.00 W/m2
03:50 -1.8 °C -3.6 °C 1012.1 hPa WSW 4.8 km/h 6.4 km/h 88% 0 mm 0.00 W/m2
03:55 -1.8 °C -3.6 °C 1012.1 hPa West 6.4 km/h 11.3 km/h 88% 0 mm 0.00 W/m2
04:00 -1.9 °C -3.6 °C 1012.1 hPa West 6.4 km/h 11.3 km/h 88% 0 mm 0.00 W/m2
04:05 -1.9 °C -3.8 °C 1012.1 hPa WNW 6.4 km/h 11.3 km/h 87% 0 mm 0.00 W/m2
04:10 -1.9 °C -3.6 °C 1011.7 hPa WNW 4.8 km/h 11.3 km/h 88% 0 mm 0.00 W/m2
04:15 -1.9 °C -3.7 °C 1011.7 hPa WNW 3.2 km/h 8 km/h 88% 0 mm 0.00 W/m2
04:20 -2.1 °C -3.8 °C 1011.7 hPa WNW 3.2 km/h 8 km/h 88% 0 mm 0.00 W/m2
04:25 -2.2 °C -3.9 °C 1011.7 hPa WNW 6.4 km/h 14.5 km/h 88% 0 mm 0.00 W/m2
04:30 -2.3 °C -4.2 °C 1011.7 hPa WNW 6.4 km/h 14.5 km/h 87% 0 mm 0.00 W/m2
04:35 -2.6 °C -4.4 °C 1011.7 hPa West 1.6 km/h 14.5 km/h 87% 0 mm 0.00 W/m2
04:40 -2.8 °C -4.5 °C 1011.7 hPa West 3.2 km/h 14.5 km/h 88% 0 mm 0.00 W/m2
04:45 -2.9 °C -4.7 °C 1011.7 hPa West 4.8 km/h 6.4 km/h 88% 0 mm 0.00 W/m2
04:50 -3.1 °C -4.8 °C 1011.4 hPa WSW 6.4 km/h 11.3 km/h 88% 0 mm 0.00 W/m2
04:55 -3.2 °C -4.7 °C 1011.7 hPa WSW 4.8 km/h 11.3 km/h 89% 0 mm 0.00 W/m2
05:00 -3.3 °C -5 °C 1011.7 hPa SW 3.2 km/h 9.7 km/h 88% 0 mm 0.00 W/m2
05:05 -3.4 °C -4.9 °C 1011.7 hPa WNW 4.8 km/h 9.7 km/h 89% 0 mm 0.00 W/m2
05:10 -3.4 °C -4.9 °C 1011.7 hPa WNW 3.2 km/h 6.4 km/h 89% 0 mm 0.00 W/m2
05:15 -3.4 °C -4.9 °C 1011.7 hPa WSW 3.2 km/h 6.4 km/h 89% 0 mm 0.00 W/m2
05:20 -3.4 °C -4.9 °C 1011.7 hPa West 4.8 km/h 12.9 km/h 89% 0 mm 0.00 W/m2
05:25 -3.3 °C -4.9 °C 1012.1 hPa NNW 4.8 km/h 12.9 km/h 89% 0 mm 0.00 W/m2
05:30 -3.4 °C -4.8 °C 1012.1 hPa NNW 4.8 km/h 12.9 km/h 90% 0 mm 0.00 W/m2
05:35 -3 °C -4.4 °C 1012.1 hPa NW 6.4 km/h 16.1 km/h 90% 0 mm 0.00 W/m2
05:40 -2.6 °C -4.1 °C 1012.1 hPa NW 8 km/h 16.1 km/h 89% 0 mm 0.00 W/m2
05:45 -2.3 °C -4 °C 1012.1 hPa WNW 17.7 km/h 17.7 km/h 88% 0 mm 0.00 W/m2
05:50 -1.9 °C -3.8 °C 1012.1 hPa West 14.5 km/h 22.5 km/h 87% 0 mm 0.00 W/m2
05:55 -1.9 °C -3.9 °C 1012.1 hPa WNW 16.1 km/h 22.5 km/h 86% 0 mm 0.00 W/m2
06:00 -2.1 °C -4.1 °C 1012.1 hPa West 11.3 km/h 22.5 km/h 86% 0 mm 0.00 W/m2
06:05 -2.3 °C -4.3 °C 1012.1 hPa WNW 6.4 km/h 22.5 km/h 86% 0 mm 0.00 W/m2
06:10 -2.3 °C -4.2 °C 1012.1 hPa WNW 8 km/h 22.5 km/h 87% 0 mm 0.00 W/m2
06:15 -2.3 °C -4.2 °C 1012.1 hPa WNW 6.4 km/h 12.9 km/h 87% 0 mm 0.00 W/m2
06:20 -2.3 °C -4.2 °C 1012.1 hPa NW 11.3 km/h 12.9 km/h 87% 0 mm 0.00 W/m2
06:25 -2.2 °C -4.1 °C 1012.1 hPa West 9.7 km/h 14.5 km/h 87% 0 mm 0.00 W/m2
06:30 -2.2 °C -4.2 °C 1012.1 hPa West 12.9 km/h 14.5 km/h 86% 0 mm 0.00 W/m2
06:35 -2.4 °C -4.4 °C 1012.1 hPa WNW 12.9 km/h 16.1 km/h 86% 0 mm 0.00 W/m2
06:40 -2.6 °C -4.6 °C 1012.1 hPa West 9.7 km/h 16.1 km/h 86% 0 mm 0.00 W/m2
06:45 -2.7 °C -4.7 °C 1012.1 hPa West 11.3 km/h 16.1 km/h 86% 0 mm 0.00 W/m2
06:50 -2.7 °C -4.6 °C 1012.1 hPa West 14.5 km/h 17.7 km/h 87% 0 mm 0.00 W/m2
06:55 -2.9 °C -4.9 °C 1011.7 hPa West 6.4 km/h 17.7 km/h 86% 0 mm 0.00 W/m2
07:00 -3.1 °C -4.9 °C 1012.1 hPa WNW 8 km/h 17.7 km/h 87% 0 mm 0.00 W/m2
07:05 -3.1 °C -4.9 °C 1011.7 hPa WNW 6.4 km/h 17.7 km/h 87% 0 mm 0.00 W/m2
07:10 -3 °C -4.7 °C 1011.7 hPa WNW 9.7 km/h 17.7 km/h 88% 0 mm 0.00 W/m2
07:15 -2.8 °C -4.7 °C 1011.7 hPa WNW 11.3 km/h 17.7 km/h 87% 0 mm 0.00 W/m2
07:20 -2.6 °C -4.5 °C 1011.7 hPa West 12.9 km/h 17.7 km/h 87% 0 mm 0.00 W/m2
07:25 -2.6 °C -4.6 °C 1012.1 hPa WNW 14.5 km/h 17.7 km/h 86% 0 mm 0.00 W/m2
07:30 -2.7 °C -4.7 °C 1011.7 hPa WNW 9.7 km/h 17.7 km/h 86% 0 mm 0.00 W/m2
07:35 -2.9 °C -4.9 °C 1011.7 hPa West 9.7 km/h 17.7 km/h 86% 0 mm 0.00 W/m2
07:40 -2.9 °C -4.8 °C 1011.7 hPa WNW 8 km/h 17.7 km/h 87% 0 mm 0.00 W/m2
07:45 -2.8 °C -4.7 °C 1011.7 hPa WNW 11.3 km/h 12.9 km/h 87% 0 mm 0.00 W/m2
07:50 -2.7 °C -4.7 °C 1012.1 hPa WNW 11.3 km/h 14.5 km/h 86% 0 mm 0.00 W/m2
07:55 -2.7 °C -4.7 °C 1012.1 hPa NW 6.4 km/h 14.5 km/h 86% 0 mm 0.00 W/m2
08:00 -2.8 °C -4.9 °C 1012.1 hPa WNW 11.3 km/h 14.5 km/h 85% 0 mm 0.00 W/m2
08:05 -2.8 °C -5 °C 1012.1 hPa WNW 11.3 km/h 16.1 km/h 85% 0 mm 5.00 W/m2
08:10 -2.9 °C -4.9 °C 1012.1 hPa WNW 8 km/h 16.1 km/h 86% 0 mm 7.00 W/m2
08:15 -3 °C -5 °C 1012.1 hPa WNW 14.5 km/h 16.1 km/h 86% 0 mm 7.00 W/m2
08:20 -2.8 °C -4.8 °C 1012.1 hPa WNW 8 km/h 16.1 km/h 86% 0 mm 9.00 W/m2
08:25 -2.8 °C -4.9 °C 1012.1 hPa WNW 9.7 km/h 16.1 km/h 85% 0 mm 12.00 W/m2
08:30 -2.7 °C -4.9 °C 1012.1 hPa WNW 8 km/h 16.1 km/h 85% 0 mm 14.00 W/m2
08:35 -2.9 °C -5.2 °C 1012.4 hPa NW 8 km/h 16.1 km/h 84% 0 mm 26.00 W/m2
08:40 -3.1 °C -5.1 °C 1012.4 hPa NW 9.7 km/h 14.5 km/h 86% 0 mm 26.00 W/m2
08:45 -2.9 °C -4.9 °C 1012.4 hPa WNW 11.3 km/h 16.1 km/h 86% 0 mm 46.00 W/m2
08:50 -2.7 °C -4.9 °C 1012.4 hPa West 9.7 km/h 16.1 km/h 85% 0 mm 60.00 W/m2
08:55 -2.7 °C -4.9 °C 1012.4 hPa West 12.9 km/h 16.1 km/h 85% 0 mm 53.00 W/m2
09:00 -2.7 °C -4.9 °C 1012.4 hPa West 6.4 km/h 14.5 km/h 85% 0 mm 54.00 W/m2
09:05 -2.6 °C -4.7 °C 1012.4 hPa WNW 12.9 km/h 17.7 km/h 85% 0 mm 58.00 W/m2
09:10 -2.3 °C -4.5 °C 1012.4 hPa NW 14.5 km/h 19.3 km/h 85% 0 mm 69.00 W/m2
09:15 -2.3 °C -4.4 °C 1012.4 hPa WNW 11.3 km/h 19.3 km/h 85% 0 mm 77.00 W/m2
09:20 -2.3 °C -4.7 °C 1012.4 hPa WNW 4.8 km/h 16.1 km/h 84% 0 mm 93.00 W/m2
09:25 -2.4 °C -4.8 °C 1012.4 hPa WNW 11.3 km/h 16.1 km/h 84% 0 mm 116.00 W/m2
09:30 -2.4 °C -4.8 °C 1012.4 hPa WNW 6.4 km/h 14.5 km/h 84% 0 mm 134.00 W/m2
09:35 -2.5 °C -4.8 °C 1012.4 hPa WNW 6.4 km/h 12.9 km/h 84% 0 mm 146.00 W/m2
09:40 -2.5 °C -4.7 °C 1012.4 hPa West 9.7 km/h 12.9 km/h 85% 0 mm 148.00 W/m2
09:45 -2.4 °C -4.6 °C 1012.4 hPa West 4.8 km/h 12.9 km/h 85% 0 mm 165.00 W/m2
09:50 -2.2 °C -4.4 °C 1012.4 hPa NW 6.4 km/h 9.7 km/h 85% 0 mm 139.00 W/m2
09:55 -2 °C -4.3 °C 1012.4 hPa WNW 6.4 km/h 12.9 km/h 84% 0 mm 155.00 W/m2
10:00 -1.9 °C -4.2 °C 1012.4 hPa NW 6.4 km/h 12.9 km/h 84% 0 mm 216.00 W/m2
10:05 -1.7 °C -4.2 °C 1012.4 hPa WNW 8 km/h 14.5 km/h 83% 0 mm 153.00 W/m2
10:10 -1.7 °C -4.2 °C 1012.4 hPa WNW 6.4 km/h 14.5 km/h 83% 0 mm 63.00 W/m2
10:15 -1.8 °C -4.3 °C 1012.4 hPa WNW 8 km/h 14.5 km/h 83% 0 mm 220.00 W/m2
10:20 -1.6 °C -4.1 °C 1012.4 hPa WNW 6.4 km/h 14.5 km/h 83% 0 mm 165.00 W/m2
10:25 -1.5 °C -4 °C 1012.4 hPa WNW 6.4 km/h 14.5 km/h 83% 0 mm 223.00 W/m2
10:30 -1.3 °C -3.8 °C 1012.4 hPa NW 6.4 km/h 14.5 km/h 83% 0 mm 227.00 W/m2
10:35 -1.1 °C -3.7 °C 1012.4 hPa WNW 6.4 km/h 14.5 km/h 82% 0 mm 232.00 W/m2
10:40 -0.9 °C -3.6 °C 1012.4 hPa West 14.5 km/h 19.3 km/h 82% 0 mm 241.00 W/m2
10:45 -0.8 °C -3.4 °C 1012.1 hPa West 19.3 km/h 20.9 km/h 82% 0 mm 250.00 W/m2
10:50 -0.4 °C -3.1 °C 1012.4 hPa West 16.1 km/h 25.7 km/h 82% 0 mm 255.00 W/m2
10:55 -0.3 °C -3.2 °C 1012.4 hPa West 20.9 km/h 25.7 km/h 81% 0 mm 260.00 W/m2
11:00 -0.1 °C -3 °C 1012.4 hPa WSW 14.5 km/h 25.7 km/h 81% 0 mm 265.00 W/m2
11:05 0.1 °C -2.9 °C 1012.4 hPa West 17.7 km/h 25.7 km/h 80% 0 mm 272.00 W/m2
11:10 0.3 °C -2.8 °C 1012.4 hPa West 19.3 km/h 25.7 km/h 80% 0 mm 279.00 W/m2
11:15 0.4 °C -2.7 °C 1012.1 hPa WSW 12.9 km/h 25.7 km/h 80% 0 mm 283.00 W/m2
11:20 0.4 °C -2.8 °C 1012.1 hPa WSW 8 km/h 25.7 km/h 79% 0 mm 278.00 W/m2
11:25 0.6 °C -2.7 °C 1012.1 hPa West 6.4 km/h 19.3 km/h 79% 0 mm 292.00 W/m2
11:30 0.6 °C -2.6 °C 1012.1 hPa West 9.7 km/h 19.3 km/h 79% 0 mm 297.00 W/m2
11:35 0.7 °C -2.5 °C 1012.1 hPa West 16.1 km/h 20.9 km/h 79% 0 mm 308.00 W/m2
11:40 0.8 °C -2.4 °C 1012.1 hPa West 14.5 km/h 20.9 km/h 79% 0 mm 323.00 W/m2
11:45 0.9 °C -2.3 °C 1012.1 hPa West 19.3 km/h 20.9 km/h 79% 0 mm 339.00 W/m2
11:50 0.9 °C -2.1 °C 1012.1 hPa West 14.5 km/h 20.9 km/h 80% 0 mm 367.00 W/m2
11:55 0.9 °C -2.3 °C 1012.1 hPa West 14.5 km/h 25.7 km/h 79% 0 mm 271.00 W/m2
12:00 1.1 °C -2.2 °C 1012.1 hPa West 17.7 km/h 29 km/h 79% 0 mm 360.00 W/m2
12:05 1.1 °C -1.9 °C 1012.1 hPa West 19.3 km/h 30.6 km/h 80% 0 mm 360.00 W/m2
12:10 1.2 °C -2 °C 1012.1 hPa West 20.9 km/h 30.6 km/h 79% 0 mm 366.00 W/m2
12:15 1.3 °C -1.8 °C 1012.1 hPa West 17.7 km/h 30.6 km/h 80% 0 mm 364.00 W/m2
12:20 1.4 °C -1.8 °C 1011.7 hPa West 19.3 km/h 30.6 km/h 79% 0 mm 367.00 W/m2
12:25 1.5 °C -1.7 °C 1011.7 hPa WNW 22.5 km/h 33.8 km/h 79% 0 mm 371.00 W/m2
12:30 1.7 °C -1.6 °C 1011.7 hPa West 22.5 km/h 33.8 km/h 79% 0 mm 343.00 W/m2
12:35 1.7 °C -1.7 °C 1011.7 hPa West 25.7 km/h 33.8 km/h 78% 0 mm 350.00 W/m2
12:40 1.9 °C -1.6 °C 1011.7 hPa WNW 27.4 km/h 37 km/h 78% 0 mm 381.00 W/m2
12:45 1.9 °C -1.4 °C 1011.7 hPa West 27.4 km/h 37 km/h 79% 0 mm 376.00 W/m2
12:50 1.9 °C -1.3 °C 1011.4 hPa West 30.6 km/h 35.4 km/h 79% 0 mm 364.00 W/m2
12:55 1.9 °C -1.3 °C 1011.4 hPa West 22.5 km/h 35.4 km/h 79% 0 mm 348.00 W/m2
13:00 2 °C -1.3 °C 1011.4 hPa WNW 19.3 km/h 32.2 km/h 79% 0 mm 346.00 W/m2
13:05 2 °C -1.3 °C 1011.4 hPa West 16.1 km/h 29 km/h 79% 0.25 mm 343.00 W/m2
13:10 2.1 °C -1.4 °C 1011.4 hPa West 29 km/h 30.6 km/h 78% 0.25 mm 339.00 W/m2
13:15 2.2 °C -1.2 °C 1011.4 hPa West 20.9 km/h 30.6 km/h 78% 0.51 mm 338.00 W/m2
13:20 2.3 °C -1.3 °C 1011.4 hPa WNW 22.5 km/h 33.8 km/h 77% 0.76 mm 336.00 W/m2
13:25 2.4 °C -1.2 °C 1011.4 hPa West 29 km/h 33.8 km/h 77% 0.76 mm 334.00 W/m2
13:30 2.4 °C -1.2 °C 1011.4 hPa West 30.6 km/h 37 km/h 77% 1.02 mm 330.00 W/m2
13:35 2.6 °C -1.1 °C 1011.4 hPa West 29 km/h 37 km/h 77% 1.27 mm 330.00 W/m2
13:40 2.7 °C -0.9 °C 1011.4 hPa West 24.1 km/h 38.6 km/h 77% 1.52 mm 329.00 W/m2
13:45 2.8 °C -0.8 °C 1011.1 hPa WSW 27.4 km/h 38.6 km/h 77% 1.78 mm 327.00 W/m2
13:50 2.9 °C -0.9 °C 1011.4 hPa West 24.1 km/h 43.5 km/h 76% 2.03 mm 325.00 W/m2
13:55 2.9 °C -0.9 °C 1011.4 hPa West 24.1 km/h 43.5 km/h 76% 2.29 mm 320.00 W/m2
14:00 3 °C -0.8 °C 1011.4 hPa West 27.4 km/h 43.5 km/h 76% 2.54 mm 313.00 W/m2
14:05 3.1 °C -0.6 °C 1011.4 hPa West 29 km/h 43.5 km/h 77% 2.29 mm 308.00 W/m2
14:10 3.1 °C -0.6 °C 1011.4 hPa West 20.9 km/h 37 km/h 77% 2.29 mm 302.00 W/m2
14:15 3.1 °C -0.7 °C 1011.4 hPa West 33.8 km/h 37 km/h 76% 2.54 mm 294.00 W/m2
14:20 3.3 °C -0.7 °C 1011.4 hPa West 24.1 km/h 37 km/h 75% 2.54 mm 285.00 W/m2
14:25 3.4 °C -0.6 °C 1011.4 hPa West 32.2 km/h 45.1 km/h 75% 2.29 mm 278.00 W/m2
14:30 3.5 °C -0.7 °C 1011.4 hPa West 38.6 km/h 45.1 km/h 74% 2.29 mm 269.00 W/m2
14:35 3.6 °C -0.6 °C 1011.4 hPa WNW 25.7 km/h 45.1 km/h 74% 2.29 mm 258.00 W/m2
14:40 3.7 °C -0.7 °C 1011.7 hPa West 25.7 km/h 45.1 km/h 73% 2.03 mm 248.00 W/m2
14:45 3.7 °C -0.6 °C 1011.7 hPa West 29 km/h 37 km/h 74% 2.03 mm 237.00 W/m2
14:50 3.7 °C -0.5 °C 1011.4 hPa West 27.4 km/h 37 km/h 74% 2.03 mm 227.00 W/m2
14:55 3.7 °C -0.6 °C 1011.7 hPa WNW 22.5 km/h 37 km/h 74% 2.03 mm 216.00 W/m2
15:00 3.7 °C -0.6 °C 1011.7 hPa West 30.6 km/h 32.2 km/h 74% 1.78 mm 202.00 W/m2
15:05 3.6 °C -0.4 °C 1011.7 hPa West 27.4 km/h 32.2 km/h 75% 2.03 mm 188.00 W/m2
15:10 3.6 °C -0.4 °C 1011.7 hPa West 30.6 km/h 33.8 km/h 75% 2.03 mm 174.00 W/m2
15:15 3.7 °C -0.3 °C 1011.7 hPa West 25.7 km/h 33.8 km/h 75% 2.03 mm 163.00 W/m2
15:20 3.6 °C -0.4 °C 1011.7 hPa WNW 24.1 km/h 33.8 km/h 75% 1.78 mm 151.00 W/m2
15:25 3.7 °C -0.3 °C 1011.7 hPa West 22.5 km/h 33.8 km/h 75% 1.78 mm 139.00 W/m2
15:30 3.6 °C -0.4 °C 1011.7 hPa West 20.9 km/h 30.6 km/h 75% 2.03 mm 127.00 W/m2
15:35 3.5 °C -0.5 °C 1011.7 hPa WNW 20.9 km/h 30.6 km/h 75% 2.03 mm 113.00 W/m2
15:40 3.5 °C -0.5 °C 1011.7 hPa West 22.5 km/h 30.6 km/h 75% 2.03 mm 104.00 W/m2
15:45 3.5 °C -0.5 °C 1011.7 hPa West 24.1 km/h 30.6 km/h 75% 2.03 mm 91.00 W/m2
15:50 3.6 °C -0.7 °C 1011.7 hPa West 22.5 km/h 27.4 km/h 74% 1.78 mm 83.00 W/m2
15:55 3.6 °C -0.7 °C 1011.7 hPa West 19.3 km/h 27.4 km/h 74% 1.52 mm 69.00 W/m2
16:00 3.6 °C -0.6 °C 1011.7 hPa West 22.5 km/h 37 km/h 74% 1.52 mm 62.00 W/m2
16:05 3.5 °C -0.7 °C 1011.7 hPa WSW 19.3 km/h 37 km/h 74% 1.52 mm 49.00 W/m2
16:10 3.4 °C -0.8 °C 1012.1 hPa West 20.9 km/h 35.4 km/h 74% 1.27 mm 33.00 W/m2
16:15 3.3 °C -0.7 °C 1011.7 hPa West 25.7 km/h 35.4 km/h 75% 1.02 mm 21.00 W/m2
16:20 3.3 °C -0.7 °C 1012.1 hPa West 22.5 km/h 30.6 km/h 75% 1.02 mm 18.00 W/m2
16:25 3.1 °C -0.9 °C 1012.1 hPa West 22.5 km/h 30.6 km/h 75% 1.02 mm 16.00 W/m2
16:30 3 °C -1 °C 1012.1 hPa West 17.7 km/h 30.6 km/h 75% 0.76 mm 14.00 W/m2
16:35 3 °C -1 °C 1012.1 hPa West 20.9 km/h 32.2 km/h 75% 0.51 mm 12.00 W/m2
16:40 3.1 °C -0.9 °C 1012.1 hPa West 22.5 km/h 32.2 km/h 75% 0.51 mm 11.00 W/m2
16:45 2.8 °C -1.1 °C 1012.1 hPa West 20.9 km/h 32.2 km/h 76% 0.51 mm 9.00 W/m2
16:50 2.7 °C -1.2 °C 1011.7 hPa West 20.9 km/h 32.2 km/h 76% 0.51 mm 7.00 W/m2
16:55 2.7 °C -1.1 °C 1011.7 hPa West 25.7 km/h 29 km/h 76% 0.51 mm 5.00 W/m2
17:00 2.9 °C -1.1 °C 1011.7 hPa West 24.1 km/h 30.6 km/h 75% 0.25 mm 5.00 W/m2
17:05 2.9 °C -1.1 °C 1011.7 hPa West 24.1 km/h 30.6 km/h 75% 0.25 mm 0.00 W/m2
17:10 2.8 °C -1.2 °C 1012.1 hPa West 17.7 km/h 27.4 km/h 75% 0.25 mm 0.00 W/m2
17:15 2.7 °C -1.1 °C 1012.1 hPa West 20.9 km/h 27.4 km/h 76% 0.25 mm 0.00 W/m2
17:20 2.6 °C -1.3 °C 1012.1 hPa West 19.3 km/h 27.4 km/h 76% 0.25 mm 0.00 W/m2
17:25 2.4 °C -1.4 °C 1012.1 hPa West 17.7 km/h 27.4 km/h 76% 0.25 mm 0.00 W/m2
17:30 2.3 °C -1.4 °C 1012.1 hPa West 16.1 km/h 25.7 km/h 76% 0.25 mm 0.00 W/m2
17:35 2.3 °C -1.3 °C 1012.1 hPa West 14.5 km/h 25.7 km/h 77% 0.25 mm 0.00 W/m2
17:40 2.3 °C -1.3 °C 1012.1 hPa West 17.7 km/h 25.7 km/h 77% 0.25 mm 0.00 W/m2
17:45 2.2 °C -1.4 °C 1012.1 hPa West 12.9 km/h 22.5 km/h 77% 0 mm 0.00 W/m2
17:50 2.1 °C -1.5 °C 1012.1 hPa WSW 12.9 km/h 22.5 km/h 77% 0 mm 0.00 W/m2
17:55 1.9 °C -1.6 °C 1012.1 hPa West 16.1 km/h 22.5 km/h 78% 0 mm 0.00 W/m2
18:00 1.7 °C -1.8 °C 1012.1 hPa West 16.1 km/h 20.9 km/h 78% 0 mm 0.00 W/m2
18:05 1.5 °C -1.7 °C 1012.1 hPa West 12.9 km/h 20.9 km/h 79% 0 mm 0.00 W/m2
18:10 1.3 °C -1.7 °C 1012.1 hPa West 19.3 km/h 20.9 km/h 80% 0 mm 0.00 W/m2
18:15 1.4 °C -1.6 °C 1012.1 hPa West 11.3 km/h 20.9 km/h 80% 0 mm 0.00 W/m2
18:20 1.4 °C -1.7 °C 1012.1 hPa West 14.5 km/h 20.9 km/h 80% 0 mm 0.00 W/m2
18:25 1.3 °C -1.6 °C 1012.1 hPa West 12.9 km/h 20.9 km/h 81% 0 mm 0.00 W/m2
18:30 1.4 °C -1.4 °C 1012.1 hPa West 14.5 km/h 20.9 km/h 81% 0 mm 0.00 W/m2
18:35 1.6 °C -1.3 °C 1012.1 hPa West 12.9 km/h 19.3 km/h 81% 0 mm 0.00 W/m2
18:40 1.8 °C -1.3 °C 1012.1 hPa West 12.9 km/h 20.9 km/h 80% 0 mm 0.00 W/m2
18:45 1.8 °C -1.3 °C 1012.1 hPa West 16.1 km/h 20.9 km/h 80% 0 mm 0.00 W/m2
18:50 1.8 °C -1.3 °C 1012.1 hPa West 14.5 km/h 19.3 km/h 80% 0 mm 0.00 W/m2
18:55 1.8 °C -1.3 °C 1012.1 hPa West 16.1 km/h 19.3 km/h 80% 0 mm 0.00 W/m2
19:00 1.9 °C -1.2 °C 1012.1 hPa West 14.5 km/h 19.3 km/h 80% 0 mm 0.00 W/m2
19:05 1.9 °C -1.2 °C 1012.1 hPa WSW 16.1 km/h 20.9 km/h 80% 0 mm 0.00 W/m2
19:10 1.9 °C -1.4 °C 1012.1 hPa WSW 19.3 km/h 24.1 km/h 79% 0 mm 0.00 W/m2
19:15 1.9 °C -1.3 °C 1012.1 hPa WSW 14.5 km/h 24.1 km/h 79% 0 mm 0.00 W/m2
19:20 1.8 °C -1.4 °C 1012.1 hPa WNW 9.7 km/h 24.1 km/h 79% 0 mm 0.00 W/m2
19:25 1.7 °C -1.6 °C 1012.1 hPa WNW 6.4 km/h 24.1 km/h 79% 0 mm 0.00 W/m2
19:30 1.7 °C -1.6 °C 1012.4 hPa WNW 12.9 km/h 16.1 km/h 79% 0 mm 0.00 W/m2
19:35 1.6 °C -1.7 °C 1012.4 hPa WNW 11.3 km/h 16.1 km/h 79% 0 mm 0.00 W/m2
19:40 1.5 °C -1.6 °C 1012.1 hPa West 12.9 km/h 17.7 km/h 80% 0 mm 0.00 W/m2
19:45 1.3 °C -1.8 °C 1012.1 hPa West 12.9 km/h 17.7 km/h 80% 0 mm 0.00 W/m2
19:50 1.2 °C -1.7 °C 1012.1 hPa West 12.9 km/h 17.7 km/h 81% 0 mm 0.00 W/m2
19:55 1.2 °C -1.9 °C 1012.4 hPa West 14.5 km/h 19.3 km/h 80% 0 mm 0.00 W/m2
20:00 1.1 °C -1.8 °C 1012.4 hPa WSW 16.1 km/h 20.9 km/h 81% 0 mm 0.00 W/m2
20:05 1.1 °C -1.8 °C 1012.4 hPa WSW 16.1 km/h 20.9 km/h 81% 0 mm 0.00 W/m2
20:10 1 °C -1.9 °C 1012.4 hPa WSW 11.3 km/h 20.9 km/h 81% 0 mm 0.00 W/m2
20:15 0.8 °C -2.1 °C 1012.4 hPa WSW 4.8 km/h 20.9 km/h 81% 0 mm 0.00 W/m2
20:20 0.6 °C -2.3 °C 1012.4 hPa WSW 12.9 km/h 16.1 km/h 81% 0 mm 0.00 W/m2
20:25 0.6 °C -2.2 °C 1012.4 hPa West 9.7 km/h 14.5 km/h 82% 0 mm 0.00 W/m2
20:30 0.6 °C -2.1 °C 1012.4 hPa WNW 12.9 km/h 20.9 km/h 82% 0 mm 0.00 W/m2
20:35 0.8 °C -2.1 °C 1012.4 hPa West 14.5 km/h 20.9 km/h 81% 0 mm 0.00 W/m2
20:40 0.8 °C -2.1 °C 1012.4 hPa West 11.3 km/h 20.9 km/h 81% 0 mm 0.00 W/m2
20:45 0.7 °C -2.2 °C 1012.4 hPa West 11.3 km/h 17.7 km/h 81% 0 mm 0.00 W/m2
20:50 0.6 °C -2.3 °C 1012.4 hPa West 9.7 km/h 17.7 km/h 81% 0 mm 0.00 W/m2
20:55 0.4 °C -2.4 °C 1012.4 hPa WSW 6.4 km/h 14.5 km/h 81% 0 mm 0.00 W/m2
21:00 0.3 °C -2.4 °C 1012.4 hPa WSW 4.8 km/h 14.5 km/h 82% 0 mm 0.00 W/m2
21:05 0.1 °C -2.6 °C 1012.4 hPa SW 6.4 km/h 14.5 km/h 82% 0 mm 0.00 W/m2
21:10 0 °C -2.7 °C 1012.4 hPa SSW 1.6 km/h 8 km/h 82% 0 mm 0.00 W/m2
21:15 -0.2 °C -2.7 °C 1012.4 hPa South 1.6 km/h 8 km/h 83% 0 mm 0.00 W/m2
21:20 -0.3 °C -2.7 °C 1012.8 hPa ESE 3.2 km/h 4.8 km/h 84% 0 mm 0.00 W/m2
21:25 -0.1 °C -2.5 °C 1012.4 hPa ESE 3.2 km/h 4.8 km/h 84% 0 mm 0.00 W/m2
21:30 0 °C -2.4 °C 1012.4 hPa SE 3.2 km/h 4.8 km/h 84% 0 mm 0.00 W/m2
21:35 0.1 °C -2.3 °C 1012.4 hPa NW 4.8 km/h 6.4 km/h 84% 0 mm 0.00 W/m2
21:40 0.3 °C -2.1 °C 1012.4 hPa West 3.2 km/h 8 km/h 84% 0 mm 0.00 W/m2
21:45 0.4 °C -2.1 °C 1012.4 hPa SW 3.2 km/h 9.7 km/h 83% 0 mm 0.00 W/m2
21:50 0.4 °C -2.2 °C 1012.4 hPa SW 3.2 km/h 9.7 km/h 83% 0 mm 0.00 W/m2
21:55 0.3 °C -2.2 °C 1012.4 hPa SW 4.8 km/h 8 km/h 83% 0 mm 0.00 W/m2
22:00 0.3 °C -2.3 °C 1012.4 hPa West 12.9 km/h 14.5 km/h 83% 0 mm 0.00 W/m2
22:05 0.9 °C -1.9 °C 1012.4 hPa WSW 17.7 km/h 22.5 km/h 81% 0 mm 0.00 W/m2
22:10 1.1 °C -2 °C 1012.4 hPa West 11.3 km/h 22.5 km/h 80% 0 mm 0.00 W/m2
22:15 1 °C -2.1 °C 1012.4 hPa West 16.1 km/h 22.5 km/h 80% 0 mm 0.00 W/m2
22:20 1.3 °C -1.7 °C 1012.4 hPa West 14.5 km/h 24.1 km/h 80% 0 mm 0.00 W/m2
22:25 1.3 °C -1.7 °C 1012.4 hPa WNW 8 km/h 24.1 km/h 80% 0 mm 0.00 W/m2
22:30 1.2 °C -2 °C 1012.4 hPa West 11.3 km/h 24.1 km/h 79% 0 mm 0.00 W/m2
22:35 1.1 °C -2 °C 1012.8 hPa WNW 6.4 km/h 24.1 km/h 80% 0 mm 0.00 W/m2
22:40 0.8 °C -2.2 °C 1012.8 hPa NW 6.4 km/h 17.7 km/h 80% 0 mm 0.00 W/m2
22:45 0.6 °C -2.5 °C 1012.8 hPa NW 12.9 km/h 17.7 km/h 80% 0 mm 0.00 W/m2
22:50 0.4 °C -2.3 °C 1012.8 hPa NW 11.3 km/h 14.5 km/h 82% 0 mm 0.00 W/m2
22:55 0.7 °C -2.1 °C 1013.1 hPa WNW 11.3 km/h 14.5 km/h 82% 0 mm 0.00 W/m2
23:00 0.6 °C -2.3 °C 1013.1 hPa WNW 6.4 km/h 17.7 km/h 81% 0 mm 0.00 W/m2
23:05 0.4 °C -2.5 °C 1013.1 hPa WNW 8 km/h 17.7 km/h 81% 0 mm 0.00 W/m2
23:10 0.3 °C -2.4 °C 1013.4 hPa WNW 8 km/h 17.7 km/h 82% 0 mm 0.00 W/m2
23:15 0.3 °C -2.4 °C 1013.4 hPa WNW 4.8 km/h 17.7 km/h 82% 0 mm 0.00 W/m2
23:20 0.2 °C -2.3 °C 1013.1 hPa WNW 11.3 km/h 11.3 km/h 83% 0 mm 0.00 W/m2
23:25 0.4 °C -2.3 °C 1013.4 hPa WNW 4.8 km/h 12.9 km/h 82% 0 mm 0.00 W/m2
23:30 0.3 °C -2.4 °C 1013.1 hPa WSW 8 km/h 12.9 km/h 82% 0 mm 0.00 W/m2
23:35 0.1 °C -2.7 °C 1013.4 hPa WSW 9.7 km/h 14.5 km/h 82% 0 mm 0.00 W/m2
23:40 0 °C -2.7 °C 1013.4 hPa West 16.1 km/h 20.9 km/h 82% 0 mm 0.00 W/m2
23:45 -0.1 °C -2.8 °C 1013.4 hPa West 12.9 km/h 24.1 km/h 82% 0 mm 0.00 W/m2
23:50 -0.1 °C -2.6 °C 1013.1 hPa WNW 9.7 km/h 24.1 km/h 83% 0 mm 0.00 W/m2
23:55 0.2 °C -2.4 °C 1013.1 hPa WNW 11.3 km/h 19.3 km/h 83% 0 mm 0.00 W/m2
Bismarck, North Dakota, USA
Compliments of Weather Underground - 4 mb